createdAt,value
2019-04-11T00:00:39.614Z,14.35
2019-04-11T00:03:09.220Z,13.55
2019-04-11T00:05:39.067Z,11.93
2019-04-11T00:08:08.045Z,12.70
2019-04-11T00:10:37.477Z,10.88
2019-04-11T00:13:17.379Z,13.00
2019-04-11T00:15:37.493Z,14.00
2019-04-11T00:18:06.717Z,11.38
2019-04-11T00:20:36.082Z,10.72
2019-04-11T00:23:06.121Z,11.05
2019-04-11T00:25:35.885Z,12.13
2019-04-11T00:28:05.707Z,12.82
2019-04-11T00:30:34.873Z,12.95
2019-04-11T00:33:04.157Z,10.80
2019-04-11T00:35:33.581Z,11.12
2019-04-11T00:38:02.597Z,14.13
2019-04-11T00:40:31.706Z,13.10
2019-04-11T00:43:01.109Z,13.03
2019-04-11T00:45:31.793Z,14.18
2019-04-11T00:48:01.588Z,12.03
2019-04-11T00:50:31.631Z,12.30
2019-04-11T00:53:01.482Z,10.10
2019-04-11T00:55:31.356Z,15.55
2019-04-11T00:58:01.389Z,14.38
2019-04-11T01:00:31.183Z,14.53
2019-04-11T01:03:00.051Z,15.03
2019-04-11T01:05:29.782Z,13.62
2019-04-11T01:07:59.595Z,13.53
2019-04-11T01:10:28.391Z,11.10
2019-04-11T01:12:57.336Z,11.63
2019-04-11T01:15:27.177Z,10.88
2019-04-11T01:17:57.984Z,11.83
2019-04-11T01:20:27.231Z,12.90
2019-04-11T01:22:56.422Z,13.88
2019-04-11T01:25:25.406Z,12.50
2019-04-11T01:27:54.417Z,11.83
2019-04-11T01:33:04.557Z,11.65
2019-04-11T01:35:33.671Z,14.65
2019-04-11T01:38:02.677Z,11.40
2019-04-11T01:40:31.925Z,13.55
2019-04-11T01:43:01.907Z,11.40
2019-04-11T01:45:31.653Z,13.32
2019-04-11T01:48:11.146Z,13.28
2019-04-11T01:50:41.186Z,10.93
2019-04-11T01:53:11.012Z,13.78
2019-04-11T01:55:40.833Z,13.58
2019-04-11T01:58:10.767Z,12.00
2019-04-11T02:01:04.673Z,15.08
2019-04-11T02:03:45.496Z,13.15
2019-04-11T02:06:14.356Z,13.45
2019-04-11T02:08:43.852Z,10.40
2019-04-11T02:11:13.067Z,12.25
2019-04-11T02:13:41.842Z,12.55
2019-04-11T02:16:10.788Z,13.08
2019-04-11T02:18:40.064Z,10.45
2019-04-11T02:21:09.410Z,11.35
2019-04-11T02:24:07.773Z,12.78
2019-04-11T02:26:37.730Z,12.05
2019-04-11T02:29:06.761Z,12.85
2019-04-11T02:31:36.966Z,14.63
2019-04-11T02:34:08.625Z,12.07
2019-04-11T02:36:38.409Z,12.40
2019-04-11T02:39:16.678Z,14.15
2019-04-11T02:41:42.052Z,13.15
2019-04-11T02:44:27.153Z,11.60
2019-04-11T02:46:50.725Z,11.93
2019-04-11T02:49:12.098Z,12.28
2019-04-11T02:51:42.966Z,13.68
2019-04-11T02:54:13.536Z,11.40
2019-04-11T02:56:43.607Z,14.63
2019-04-11T02:59:13.508Z,11.83
2019-04-11T03:01:43.910Z,12.82
2019-04-11T03:04:14.793Z,13.83
2019-04-11T03:06:45.667Z,14.40
2019-04-11T03:09:15.403Z,12.20
2019-04-11T03:11:47.129Z,15.23
2019-04-11T03:14:16.889Z,12.75
2019-04-11T03:16:57.280Z,12.15
2019-04-11T03:19:30.089Z,15.20
2019-04-11T03:21:49.936Z,14.50
2019-04-11T03:24:21.673Z,14.25
2019-04-11T03:26:52.626Z,18.20
2019-04-11T03:29:21.787Z,15.40
2019-04-11T03:32:34.237Z,12.93
2019-04-11T03:35:12.300Z,14.93
2019-04-11T03:37:23.066Z,10.98
2019-04-11T03:39:48.869Z,14.75
2019-04-11T03:42:11.141Z,12.78
2019-04-11T03:44:31.430Z,13.78
2019-04-11T03:47:14.393Z,14.35
2019-04-11T03:49:36.749Z,14.53
2019-04-11T03:51:59.170Z,12.45
2019-04-11T03:54:29.484Z,12.75
2019-04-11T03:56:59.199Z,16.17
2019-04-11T03:59:28.977Z,15.90
2019-04-11T04:01:59.721Z,14.00
2019-04-11T04:04:29.151Z,15.13
2019-04-11T04:07:21.384Z,16.93
2019-04-11T04:09:51.219Z,14.83
2019-04-11T04:12:20.927Z,13.30
2019-04-11T04:15:37.830Z,15.50
2019-04-11T04:18:00.965Z,17.77
2019-04-11T04:20:53.115Z,16.25
2019-04-11T04:25:58.529Z,13.70
2019-04-11T04:28:29.294Z,15.00
2019-04-11T04:31:00.091Z,15.65
2019-04-11T04:33:30.637Z,15.10
2019-04-11T04:36:00.695Z,16.45
2019-04-11T04:38:33.650Z,15.20
2019-04-11T04:41:33.444Z,16.60
2019-04-11T04:43:54.903Z,22.73
2019-04-11T04:46:39.758Z,16.57
2019-04-11T04:48:55.989Z,15.93
2019-04-11T04:51:26.634Z,18.85
2019-04-11T04:53:55.759Z,17.77
2019-04-11T04:56:29.532Z,18.90
2019-04-11T04:58:56.025Z,16.32
2019-04-11T05:01:26.451Z,17.52
2019-04-11T05:03:56.407Z,15.40
2019-04-11T05:06:26.214Z,14.33
2019-04-11T05:08:56.048Z,13.90
2019-04-11T05:11:26.268Z,15.25
2019-04-11T05:13:56.633Z,16.57
2019-04-11T05:16:25.694Z,15.85
2019-04-11T05:18:54.834Z,16.42
2019-04-11T05:21:23.503Z,16.10
2019-04-11T05:23:52.476Z,15.60
2019-04-11T05:26:21.590Z,15.10
2019-04-11T05:28:51.038Z,17.02
2019-04-11T05:31:20.620Z,15.53
2019-04-11T05:33:49.745Z,16.65
2019-04-11T05:36:18.704Z,16.05
2019-04-11T05:38:48.666Z,16.70
2019-04-11T05:41:20.177Z,13.98
2019-04-11T05:43:48.023Z,16.40
2019-04-11T05:46:31.124Z,15.70
2019-04-11T05:48:57.987Z,15.38
2019-04-11T05:51:23.858Z,14.95
2019-04-11T05:53:54.560Z,15.58
2019-04-11T05:56:43.720Z,14.70
2019-04-11T05:59:18.896Z,16.67
2019-04-11T06:02:08.229Z,15.65
2019-04-11T06:04:50.060Z,13.90
2019-04-11T06:07:23.213Z,13.78
2019-04-11T06:09:54.709Z,12.03
2019-04-11T06:12:43.464Z,17.20
2019-04-11T06:15:21.383Z,16.37
2019-04-11T06:17:50.387Z,19.67
2019-04-11T06:20:35.607Z,16.37
2019-04-11T06:23:23.362Z,15.00
2019-04-11T06:26:03.111Z,16.17
2019-04-11T06:28:32.628Z,14.87
2019-04-11T06:31:40.392Z,12.53
2019-04-11T06:34:09.286Z,13.88
2019-04-11T06:36:55.207Z,15.15
2019-04-11T06:39:43.832Z,12.85
2019-04-11T06:42:27.506Z,13.28
2019-04-11T06:45:29.911Z,14.33
2019-04-11T06:48:07.319Z,15.70
2019-04-11T06:50:44.482Z,14.85
2019-04-11T06:53:16.749Z,15.70
2019-04-11T06:56:03.757Z,15.70
2019-04-11T06:58:37.339Z,14.68
2019-04-11T07:01:11.885Z,13.20
2019-04-11T07:03:49.003Z,12.45
2019-04-11T07:06:20.151Z,15.98
2019-04-11T07:08:59.077Z,13.23
2019-04-11T07:11:36.562Z,14.10
2019-04-11T07:14:22.774Z,14.18
2019-04-11T07:17:10.610Z,12.35
2019-04-11T07:19:57.307Z,11.60
2019-04-11T07:22:43.713Z,11.30
2019-04-11T07:25:37.430Z,14.07
2019-04-11T07:28:14.442Z,13.78
2019-04-11T07:31:21.554Z,15.32
2019-04-11T07:34:12.172Z,15.93
2019-04-11T07:37:00.123Z,14.28
2019-04-11T07:39:45.032Z,13.95
2019-04-11T07:42:37.363Z,12.40
2019-04-11T07:45:11.603Z,14.47
2019-04-11T07:47:46.088Z,14.98
2019-04-11T07:50:16.759Z,14.25
2019-04-11T07:52:51.723Z,14.23
2019-04-11T07:55:22.800Z,13.90
2019-04-11T07:57:56.681Z,13.80
2019-04-11T08:00:52.875Z,16.87
2019-04-11T08:03:46.978Z,12.75
2019-04-11T08:06:33.384Z,11.22
2019-04-11T08:09:19.582Z,15.25
2019-04-11T08:12:04.550Z,14.80
2019-04-11T08:14:55.285Z,17.05
2019-04-11T08:17:36.507Z,13.75
2019-04-11T08:20:15.698Z,14.98
2019-04-11T08:22:47.566Z,15.80
2019-04-11T08:25:50.797Z,15.53
2019-04-11T08:28:20.551Z,14.00
2019-04-11T08:31:15.171Z,12.93
2019-04-11T08:33:44.291Z,12.58
2019-04-11T08:36:24.010Z,15.13
2019-04-11T08:38:53.256Z,13.08
2019-04-11T08:41:40.035Z,15.90
2019-04-11T08:44:20.622Z,13.98
2019-04-11T08:46:54.101Z,12.65
2019-04-11T08:49:32.255Z,10.90
2019-04-11T08:52:05.534Z,13.80
2019-04-11T08:54:51.400Z,13.98
2019-04-11T08:57:31.865Z,11.75
2019-04-11T09:00:33.036Z,11.48
2019-04-11T09:03:11.370Z,12.78
2019-04-11T09:05:54.065Z,10.68
2019-04-11T09:09:00.661Z,14.25
2019-04-11T09:11:38.826Z,10.30
2019-04-11T09:14:22.323Z,11.10
2019-04-11T09:16:58.308Z,15.30
2019-04-11T09:19:34.804Z,11.97
2019-04-11T09:22:29.120Z,10.60
2019-04-11T09:25:30.508Z,10.30
2019-04-11T09:28:09.239Z,13.83
2019-04-11T09:30:57.253Z,13.20
2019-04-11T09:33:57.550Z,11.53
2019-04-11T09:36:55.467Z,10.58
2019-04-11T09:39:37.216Z,11.83
2019-04-11T09:42:24.239Z,12.63
2019-04-11T09:45:05.504Z,10.85
2019-04-11T09:47:57.706Z,9.83
2019-04-11T09:50:53.192Z,11.38
2019-04-11T09:53:22.725Z,10.98
2019-04-11T09:56:09.213Z,11.12
2019-04-11T09:58:38.163Z,10.98
2019-04-11T10:01:25.063Z,11.12
2019-04-11T10:03:54.166Z,12.73
2019-04-11T10:06:41.798Z,10.85
2019-04-11T10:09:11.466Z,9.10
2019-04-11T10:12:02.391Z,12.07
2019-04-11T10:14:31.587Z,9.98
2019-04-11T10:17:26.875Z,11.78
2019-04-11T10:19:58.607Z,11.65
2019-04-11T10:22:50.021Z,10.00
2019-04-11T10:25:31.892Z,10.88
2019-04-11T10:31:04.277Z,10.55
2019-04-11T10:33:51.031Z,12.07
2019-04-11T10:36:25.365Z,10.95
2019-04-11T10:39:18.181Z,12.78
2019-04-11T10:41:50.456Z,12.33
2019-04-11T10:44:25.744Z,10.40
2019-04-11T10:46:59.854Z,9.73
2019-04-11T10:49:46.418Z,13.48
2019-04-11T10:52:34.210Z,9.95
2019-04-11T10:55:05.837Z,9.85
2019-04-11T10:57:38.429Z,9.63
2019-04-11T11:00:14.191Z,11.95
2019-04-11T11:03:06.230Z,9.63
2019-04-11T11:05:36.380Z,9.60
2019-04-11T11:08:21.574Z,13.88
2019-04-11T11:10:52.142Z,11.10
2019-04-11T11:13:40.757Z,20.68
2019-04-11T11:16:09.610Z,15.10
2019-04-11T11:19:24.470Z,19.02
2019-04-11T11:21:33.284Z,12.07
2019-04-11T11:24:33.770Z,14.55
2019-04-11T11:27:04.518Z,11.25
2019-04-11T11:29:54.008Z,13.55
2019-04-11T11:32:31.803Z,15.63
2019-04-11T11:35:26.064Z,14.40
2019-04-11T11:37:57.539Z,15.95
2019-04-11T11:40:56.538Z,17.87
2019-04-11T11:43:30.962Z,20.75
2019-04-11T11:46:19.355Z,25.45
2019-04-11T11:48:54.151Z,13.40
2019-04-11T11:51:37.364Z,25.27
2019-04-11T11:54:11.779Z,13.98
2019-04-11T11:56:42.438Z,16.07
2019-04-11T11:59:18.248Z,10.05
2019-04-11T12:01:54.294Z,10.35
2019-04-11T12:04:42.133Z,12.53
2019-04-11T12:07:12.761Z,8.93
2019-04-11T12:10:13.361Z,14.65
2019-04-11T12:12:51.997Z,11.00
2019-04-11T12:15:43.503Z,15.40
2019-04-11T12:18:31.232Z,13.07
2019-04-11T12:21:03.317Z,16.17
2019-04-11T12:26:43.230Z,18.30
2019-04-11T12:29:30.496Z,14.35
2019-04-11T12:32:01.231Z,11.28
2019-04-11T12:34:49.392Z,12.35
2019-04-11T12:37:25.229Z,15.63
2019-04-11T12:40:31.616Z,18.25
2019-04-11T12:43:01.512Z,8.13
2019-04-11T12:45:55.049Z,11.10
2019-04-11T12:48:34.772Z,10.28
2019-04-11T12:51:37.480Z,10.23
2019-04-11T12:54:10.301Z,8.75
2019-04-11T12:56:56.801Z,10.48
2019-04-11T12:59:28.260Z,9.98
2019-04-11T13:02:28.931Z,12.33
2019-04-11T13:04:58.094Z,8.98
2019-04-11T13:07:44.609Z,9.48
2019-04-11T13:10:45.947Z,11.83
2019-04-11T13:13:45.872Z,12.80
2019-04-11T13:16:16.341Z,13.32
2019-04-11T13:19:04.335Z,10.95
2019-04-11T13:21:45.375Z,11.30
2019-04-11T13:24:45.751Z,9.28
2019-04-11T13:27:23.163Z,11.60
2019-04-11T13:30:14.212Z,11.50
2019-04-11T13:32:46.278Z,9.10
2019-04-11T13:38:04.176Z,11.03
2019-04-11T13:40:47.081Z,8.88
2019-04-11T13:43:23.742Z,11.12
2019-04-11T13:46:01.234Z,11.05
2019-04-11T13:48:48.940Z,10.55
2019-04-11T13:51:27.475Z,9.58
2019-04-11T13:54:24.482Z,13.15
2019-04-11T13:57:12.212Z,8.68
2019-04-11T13:59:59.571Z,9.38
2019-04-11T14:02:50.655Z,8.90
2019-04-11T14:05:11.528Z,9.88
2019-04-11T14:07:40.567Z,12.37
2019-04-11T14:10:09.597Z,14.53
2019-04-11T14:12:39.040Z,11.33
2019-04-11T14:15:11.151Z,12.43
2019-04-11T14:20:33.297Z,11.88
2019-04-11T14:23:23.891Z,11.97
2019-04-11T14:26:14.553Z,9.10
2019-04-11T14:29:15.017Z,11.50
2019-04-11T14:32:02.952Z,9.05
2019-04-11T14:34:57.015Z,10.43
2019-04-11T14:37:44.073Z,7.78
2019-04-11T14:40:31.133Z,9.30
2019-04-11T14:43:28.010Z,9.95
2019-04-11T14:46:16.056Z,11.20
2019-04-11T14:49:05.686Z,8.20
2019-04-11T14:51:58.402Z,11.20
2019-04-11T14:55:01.288Z,9.85
2019-04-11T14:57:47.088Z,10.82
2019-04-11T15:00:25.073Z,13.88
2019-04-11T15:03:25.413Z,10.93
2019-04-11T15:06:14.853Z,7.12
2019-04-11T15:08:53.282Z,8.83
2019-04-11T15:11:39.956Z,11.38
2019-04-11T15:14:17.667Z,23.18
2019-04-11T15:17:18.446Z,23.20
2019-04-11T15:19:53.635Z,13.90
2019-04-11T15:22:47.977Z,13.48
2019-04-11T15:25:24.147Z,10.38
2019-04-11T15:28:07.987Z,13.53
2019-04-11T15:30:38.459Z,11.55
2019-04-11T15:33:41.759Z,21.45
2019-04-11T15:36:19.197Z,24.20
2019-04-11T15:39:10.049Z,28.10
2019-04-11T15:41:40.172Z,24.92
2019-04-11T15:44:36.826Z,16.65
2019-04-11T15:47:07.887Z,24.00
2019-04-11T15:49:55.864Z,13.55
2019-04-11T15:52:24.605Z,15.18
2019-04-11T15:55:11.221Z,10.78
2019-04-11T15:57:52.426Z,8.15
2019-04-11T16:00:43.904Z,12.78
2019-04-11T16:03:24.539Z,12.60
2019-04-11T16:06:10.977Z,8.95
2019-04-11T16:08:44.780Z,9.90
2019-04-11T16:11:32.672Z,8.98
2019-04-11T16:14:06.823Z,8.65
2019-04-11T16:17:00.348Z,7.30
2019-04-11T16:19:42.227Z,8.28
2019-04-11T16:22:29.956Z,10.82
2019-04-11T16:25:00.755Z,9.38
2019-04-11T16:27:48.810Z,8.95
2019-04-11T16:30:18.938Z,10.20
2019-04-11T16:32:55.145Z,9.08
2019-04-11T16:35:32.940Z,10.13
2019-04-11T16:38:02.600Z,7.17
2019-04-11T16:40:53.484Z,9.23
2019-04-11T16:43:24.110Z,9.30
2019-04-11T16:46:09.897Z,7.08
2019-04-11T16:48:38.638Z,10.53
2019-04-11T16:51:07.400Z,9.83
2019-04-11T16:53:36.182Z,10.05
2019-04-11T16:56:05.280Z,9.38
2019-04-11T16:58:34.742Z,11.80
2019-04-11T17:01:03.564Z,21.60
2019-04-11T17:03:32.344Z,10.88
2019-04-11T17:06:07.136Z,13.20
2019-04-11T17:08:40.834Z,11.57
2019-04-11T17:11:18.893Z,7.90
2019-04-11T17:13:47.504Z,10.80
2019-04-11T17:16:20.121Z,10.40
2019-04-11T17:18:49.347Z,9.88
2019-04-11T17:21:18.066Z,16.20
2019-04-11T17:23:48.604Z,9.05
2019-04-11T17:26:17.836Z,8.60
2019-04-11T17:28:46.798Z,12.50
2019-04-11T17:31:15.671Z,9.00
2019-04-11T17:33:44.997Z,9.08
2019-04-11T17:36:13.826Z,13.75
2019-04-11T17:38:42.596Z,12.55
2019-04-11T17:41:12.372Z,12.40
2019-04-11T17:43:42.264Z,14.45
2019-04-11T17:46:11.084Z,8.35
2019-04-11T17:48:40.033Z,13.80
2019-04-11T17:51:09.647Z,13.30
2019-04-11T17:53:38.528Z,14.53
2019-04-11T17:56:07.261Z,16.17
2019-04-11T17:58:35.995Z,13.62
2019-04-11T18:01:06.589Z,13.50
2019-04-11T18:03:35.629Z,13.03
2019-04-11T18:06:04.466Z,14.95
2019-04-11T18:08:33.473Z,13.20
2019-04-11T18:11:02.171Z,15.25
2019-04-11T18:13:31.735Z,14.83
2019-04-11T18:16:01.769Z,11.28
2019-04-11T18:18:34.855Z,13.85
2019-04-11T18:21:01.650Z,14.45
2019-04-11T18:23:30.465Z,12.45
2019-04-11T18:25:59.146Z,11.12
2019-04-11T18:28:28.174Z,10.63
2019-04-11T18:30:56.869Z,12.45
2019-04-11T18:33:25.757Z,18.07
2019-04-11T18:35:54.576Z,18.42
2019-04-11T18:38:23.302Z,12.03
2019-04-11T18:40:51.996Z,13.93
2019-04-11T18:43:20.847Z,13.28
2019-04-11T18:45:49.819Z,9.15
2019-04-11T18:48:18.557Z,7.72
2019-04-11T18:50:47.313Z,9.78
2019-04-11T18:53:16.089Z,14.40
2019-04-11T18:55:45.266Z,15.83
2019-04-11T18:58:14.237Z,7.90
2019-04-11T19:00:42.995Z,8.73
2019-04-11T19:03:14.252Z,12.45
2019-04-11T19:05:43.005Z,9.25
2019-04-11T19:08:13.120Z,9.60
2019-04-11T19:10:45.153Z,8.45
2019-04-11T19:13:16.737Z,4.97
2019-04-11T19:15:45.801Z,6.25
2019-04-11T19:18:16.302Z,8.80
2019-04-11T19:20:45.429Z,5.60
2019-04-11T19:23:14.203Z,4.80
2019-04-11T19:25:45.094Z,5.15
2019-04-11T19:28:13.732Z,5.20
2019-04-11T19:30:42.586Z,4.37
2019-04-11T19:33:11.488Z,5.60
2019-04-11T19:35:41.590Z,7.60
2019-04-11T19:38:23.838Z,4.97
2019-04-11T19:40:52.608Z,4.40
2019-04-11T19:43:21.393Z,5.70
2019-04-11T19:45:50.575Z,7.80
2019-04-11T19:48:19.255Z,5.17
2019-04-11T19:50:47.941Z,5.90
2019-04-11T19:53:16.669Z,5.30
2019-04-11T19:58:52.135Z,8.83
2019-04-11T20:01:23.522Z,4.58
2019-04-11T20:03:53.927Z,5.33
2019-04-11T20:06:22.251Z,5.35
2019-04-11T20:08:51.201Z,5.17
2019-04-11T20:11:20.436Z,4.95
2019-04-11T20:13:49.431Z,3.62
2019-04-11T20:16:18.372Z,5.53
2019-04-11T20:18:51.181Z,6.97
2019-04-11T20:21:18.333Z,6.42
2019-04-11T20:23:47.277Z,6.55
2019-04-11T20:26:19.948Z,5.45
2019-04-11T20:28:48.190Z,6.08
2019-04-11T20:31:17.769Z,6.78
2019-04-11T20:33:46.730Z,5.72
2019-04-11T20:36:15.398Z,4.20
2019-04-11T20:38:44.740Z,4.65
2019-04-11T20:41:14.511Z,5.00
2019-04-11T20:43:43.346Z,2.87
2019-04-11T20:46:11.989Z,2.72
2019-04-11T20:48:41.186Z,3.72
2019-04-11T20:51:10.178Z,4.47
2019-04-11T20:53:39.466Z,3.35
2019-04-11T20:56:09.954Z,3.90
2019-04-11T20:58:40.287Z,3.62
2019-04-11T21:01:09.040Z,3.22
2019-04-11T21:03:37.736Z,3.22
2019-04-11T21:06:09.027Z,3.00
2019-04-11T21:08:37.985Z,3.52
2019-04-11T21:11:06.694Z,5.15
2019-04-11T21:13:39.994Z,3.35
2019-04-11T21:16:08.691Z,4.40
2019-04-11T21:18:37.704Z,3.55
2019-04-11T21:21:09.762Z,3.08
2019-04-11T21:26:06.348Z,4.55
2019-04-11T21:28:35.036Z,3.77
2019-04-11T21:31:03.820Z,3.52
2019-04-11T21:33:34.930Z,4.25
2019-04-11T21:36:03.436Z,3.95
2019-04-11T21:38:34.597Z,4.72
2019-04-11T21:41:05.889Z,2.13
2019-04-11T21:43:36.275Z,4.35
2019-04-11T21:46:06.870Z,3.08
2019-04-11T21:48:36.091Z,3.30
2019-04-11T21:51:05.502Z,3.22
2019-04-11T21:53:36.793Z,4.58
2019-04-11T21:56:04.631Z,3.22
2019-04-11T21:58:33.614Z,4.65
2019-04-11T22:01:07.303Z,3.40
2019-04-11T22:03:36.057Z,3.50
2019-04-11T22:06:04.909Z,3.45
2019-04-11T22:08:34.373Z,4.10
2019-04-11T22:11:04.594Z,4.22
2019-04-11T22:13:33.256Z,3.22
2019-04-11T22:16:02.192Z,3.42
2019-04-11T22:18:30.934Z,3.15
2019-04-11T22:20:59.626Z,3.55
2019-04-11T22:23:28.310Z,2.60
2019-04-11T22:25:56.986Z,3.58
2019-04-11T22:28:25.687Z,3.47
2019-04-11T22:30:55.144Z,3.27
2019-04-11T22:33:31.849Z,3.27
2019-04-11T22:36:00.791Z,3.55
2019-04-11T22:38:30.956Z,5.97
2019-04-11T22:41:02.027Z,9.55
2019-04-11T22:43:31.512Z,5.15
2019-04-11T22:46:00.476Z,4.08
2019-04-11T22:48:29.151Z,2.92
2019-04-11T22:50:57.843Z,3.37
2019-04-11T22:53:26.609Z,2.42
2019-04-11T22:55:55.526Z,2.35
2019-04-11T22:58:24.443Z,4.15
2019-04-11T23:00:53.433Z,3.05
2019-04-11T23:03:33.179Z,5.28
2019-04-11T23:06:02.209Z,4.30
2019-04-11T23:08:31.264Z,4.08
2019-04-11T23:11:00.258Z,3.80
2019-04-11T23:13:28.959Z,3.70
2019-04-11T23:15:57.737Z,5.08
2019-04-11T23:18:26.751Z,3.62
2019-04-11T23:20:56.043Z,3.45
2019-04-11T23:23:25.116Z,3.72
2019-04-11T23:25:54.115Z,3.47
2019-04-11T23:28:23.125Z,2.92
2019-04-11T23:30:51.815Z,2.75
2019-04-11T23:33:21.448Z,3.95
2019-04-11T23:35:51.231Z,3.45
2019-04-11T23:38:23.558Z,5.35
2019-04-11T23:40:51.787Z,3.92
2019-04-11T23:43:20.944Z,3.33
2019-04-11T23:45:51.209Z,3.45
2019-04-11T23:48:23.834Z,3.75
2019-04-11T23:50:54.750Z,7.58
2019-04-11T23:53:21.674Z,3.35
2019-04-11T23:55:50.518Z,3.42
2019-04-11T23:58:19.719Z,3.65
